sensor_id;sensor_type;location;lat;lon;timestamp;temperature;humidity
16594;DHT22;8410;52.532;13.336;2022-09-14T00:01:36;14.80;99.90
16594;DHT22;8410;52.532;13.336;2022-09-14T00:04:09;14.80;99.90
16594;DHT22;8410;52.532;13.336;2022-09-14T00:06:39;14.80;99.90
16594;DHT22;8410;52.532;13.336;2022-09-14T00:09:10;14.90;99.90
16594;DHT22;8410;52.532;13.336;2022-09-14T00:11:41;15.00;99.90
16594;DHT22;8410;52.532;13.336;2022-09-14T00:14:08;15.00;99.90
16594;DHT22;8410;52.532;13.336;2022-09-14T00:16:38;15.00;99.90
16594;DHT22;8410;52.532;13.336;2022-09-14T00:19:16;15.10;99.90
16594;DHT22;8410;52.532;13.336;2022-09-14T00:21:49;15.10;99.90
16594;DHT22;8410;52.532;13.336;2022-09-14T00:24:18;15.10;99.90
16594;DHT22;8410;52.532;13.336;2022-09-14T00:26:47;15.10;99.90
16594;DHT22;8410;52.532;13.336;2022-09-14T00:29:15;15.00;99.90
16594;DHT22;8410;52.532;13.336;2022-09-14T00:31:43;15.00;99.90
16594;DHT22;8410;52.532;13.336;2022-09-14T00:34:14;15.00;99.90
16594;DHT22;8410;52.532;13.336;2022-09-14T00:36:45;14.80;99.90
16594;DHT22;8410;52.532;13.336;2022-09-14T00:39:17;14.80;99.90
16594;DHT22;8410;52.532;13.336;2022-09-14T00:41:48;14.80;99.90
16594;DHT22;8410;52.532;13.336;2022-09-14T00:47:29;14.80;99.90
16594;DHT22;8410;52.532;13.336;2022-09-14T00:50:01;14.90;99.90
16594;DHT22;8410;52.532;13.336;2022-09-14T00:52:33;14.80;99.90
16594;DHT22;8410;52.532;13.336;2022-09-14T00:55:06;14.70;99.90
16594;DHT22;8410;52.532;13.336;2022-09-14T00:57:38;14.70;99.90
16594;DHT22;8410;52.532;13.336;2022-09-14T01:00:10;14.60;99.90
16594;DHT22;8410;52.532;13.336;2022-09-14T01:02:40;14.60;99.90
16594;DHT22;8410;52.532;13.336;2022-09-14T01:05:10;14.50;99.90
16594;DHT22;8410;52.532;13.336;2022-09-14T01:10:47;14.50;99.90
16594;DHT22;8410;52.532;13.336;2022-09-14T01:13:31;14.40;99.90
16594;DHT22;8410;52.532;13.336;2022-09-14T01:16:11;14.30;99.90
16594;DHT22;8410;52.532;13.336;2022-09-14T01:18:50;14.30;99.90
16594;DHT22;8410;52.532;13.336;2022-09-14T01:21:28;14.30;99.90
16594;DHT22;8410;52.532;13.336;2022-09-14T01:24:01;14.30;99.90
16594;DHT22;8410;52.532;13.336;2022-09-14T01:30:02;14.20;99.90
16594;DHT22;8410;52.532;13.336;2022-09-14T01:32:38;14.20;99.90
16594;DHT22;8410;52.532;13.336;2022-09-14T01:35:14;14.10;99.90
16594;DHT22;8410;52.532;13.336;2022-09-14T01:37:49;14.00;99.90
16594;DHT22;8410;52.532;13.336;2022-09-14T01:40:23;14.10;99.90
16594;DHT22;8410;52.532;13.336;2022-09-14T01:42:57;14.10;99.90
16594;DHT22;8410;52.532;13.336;2022-09-14T01:45:30;14.00;99.90
16594;DHT22;8410;52.532;13.336;2022-09-14T01:48:02;14.00;99.90
16594;DHT22;8410;52.532;13.336;2022-09-14T01:50:39;14.00;99.90
16594;DHT22;8410;52.532;13.336;2022-09-14T01:53:13;14.00;99.90
16594;DHT22;8410;52.532;13.336;2022-09-14T01:55:51;13.90;99.90
16594;DHT22;8410;52.532;13.336;2022-09-14T01:58:27;14.00;99.90
16594;DHT22;8410;52.532;13.336;2022-09-14T02:01:03;14.00;99.90
16594;DHT22;8410;52.532;13.336;2022-09-14T02:03:37;14.00;99.90
16594;DHT22;8410;52.532;13.336;2022-09-14T02:06:16;14.00;99.90
16594;DHT22;8410;52.532;13.336;2022-09-14T02:08:50;13.90;99.90
16594;DHT22;8410;52.532;13.336;2022-09-14T02:11:18;13.90;99.90
16594;DHT22;8410;52.532;13.336;2022-09-14T02:13:46;13.90;99.90
16594;DHT22;8410;52.532;13.336;2022-09-14T02:16:16;14.00;99.90
16594;DHT22;8410;52.532;13.336;2022-09-14T02:18:45;14.00;99.90
16594;DHT22;8410;52.532;13.336;2022-09-14T02:21:15;14.10;99.90
16594;DHT22;8410;52.532;13.336;2022-09-14T02:23:46;14.00;99.90
16594;DHT22;8410;52.532;13.336;2022-09-14T02:26:14;14.00;99.90
16594;DHT22;8410;52.532;13.336;2022-09-14T02:28:43;14.00;99.90
16594;DHT22;8410;52.532;13.336;2022-09-14T02:31:20;14.00;99.90
16594;DHT22;8410;52.532;13.336;2022-09-14T02:34:04;13.90;99.90
16594;DHT22;8410;52.532;13.336;2022-09-14T02:36:46;13.90;99.90
16594;DHT22;8410;52.532;13.336;2022-09-14T02:39:24;13.80;99.90
16594;DHT22;8410;52.532;13.336;2022-09-14T02:42:01;13.80;99.90
16594;DHT22;8410;52.532;13.336;2022-09-14T02:44:42;13.80;99.90
16594;DHT22;8410;52.532;13.336;2022-09-14T02:47:24;13.80;99.90
16594;DHT22;8410;52.532;13.336;2022-09-14T02:50:04;13.90;99.90
16594;DHT22;8410;52.532;13.336;2022-09-14T02:52:46;14.00;99.90
16594;DHT22;8410;52.532;13.336;2022-09-14T02:55:19;14.00;99.90
16594;DHT22;8410;52.532;13.336;2022-09-14T02:58:03;14.10;99.90
16594;DHT22;8410;52.532;13.336;2022-09-14T03:00:36;14.00;99.90
16594;DHT22;8410;52.532;13.336;2022-09-14T03:03:09;14.00;99.90
16594;DHT22;8410;52.532;13.336;2022-09-14T03:05:38;13.90;99.90
16594;DHT22;8410;52.532;13.336;2022-09-14T03:08:08;13.80;99.90
16594;DHT22;8410;52.532;13.336;2022-09-14T03:10:37;13.90;99.90
16594;DHT22;8410;52.532;13.336;2022-09-14T03:13:08;13.90;99.90
16594;DHT22;8410;52.532;13.336;2022-09-14T03:15:36;13.90;99.90
16594;DHT22;8410;52.532;13.336;2022-09-14T03:18:06;13.90;99.90
16594;DHT22;8410;52.532;13.336;2022-09-14T03:20:40;13.80;99.90
16594;DHT22;8410;52.532;13.336;2022-09-14T03:23:09;13.90;99.90
16594;DHT22;8410;52.532;13.336;2022-09-14T03:25:40;14.00;99.90
16594;DHT22;8410;52.532;13.336;2022-09-14T03:28:10;14.00;99.90
16594;DHT22;8410;52.532;13.336;2022-09-14T03:30:38;14.10;99.90
16594;DHT22;8410;52.532;13.336;2022-09-14T03:33:08;14.10;99.90
16594;DHT22;8410;52.532;13.336;2022-09-14T03:35:36;14.00;99.90
16594;DHT22;8410;52.532;13.336;2022-09-14T03:38:03;14.00;99.90
16594;DHT22;8410;52.532;13.336;2022-09-14T03:40:32;13.90;99.90
16594;DHT22;8410;52.532;13.336;2022-09-14T03:43:00;13.90;99.90
16594;DHT22;8410;52.532;13.336;2022-09-14T03:45:28;14.00;99.90
16594;DHT22;8410;52.532;13.336;2022-09-14T03:47:55;13.80;99.90
16594;DHT22;8410;52.532;13.336;2022-09-14T03:50:24;13.80;99.90
16594;DHT22;8410;52.532;13.336;2022-09-14T03:52:52;13.70;99.90
16594;DHT22;8410;52.532;13.336;2022-09-14T03:55:21;13.70;99.90
16594;DHT22;8410;52.532;13.336;2022-09-14T03:57:52;13.70;99.90
16594;DHT22;8410;52.532;13.336;2022-09-14T04:00:22;13.70;99.90
16594;DHT22;8410;52.532;13.336;2022-09-14T04:02:50;13.70;99.90
16594;DHT22;8410;52.532;13.336;2022-09-14T04:05:18;13.60;99.90
16594;DHT22;8410;52.532;13.336;2022-09-14T04:07:48;13.60;99.90
16594;DHT22;8410;52.532;13.336;2022-09-14T04:10:16;13.50;99.90
16594;DHT22;8410;52.532;13.336;2022-09-14T04:12:44;13.60;99.90
16594;DHT22;8410;52.532;13.336;2022-09-14T04:15:12;13.70;99.90
16594;DHT22;8410;52.532;13.336;2022-09-14T04:17:40;13.70;99.90
16594;DHT22;8410;52.532;13.336;2022-09-14T04:20:08;13.60;99.90
16594;DHT22;8410;52.532;13.336;2022-09-14T04:22:37;13.60;99.90
16594;DHT22;8410;52.532;13.336;2022-09-14T04:25:07;13.70;99.90
16594;DHT22;8410;52.532;13.336;2022-09-14T04:27:35;13.80;99.90
16594;DHT22;8410;52.532;13.336;2022-09-14T04:30:03;13.80;99.90
16594;DHT22;8410;52.532;13.336;2022-09-14T04:32:32;13.90;99.90
16594;DHT22;8410;52.532;13.336;2022-09-14T04:35:00;13.90;99.90
16594;DHT22;8410;52.532;13.336;2022-09-14T04:37:29;14.00;99.90
16594;DHT22;8410;52.532;13.336;2022-09-14T04:39:58;14.10;99.90
16594;DHT22;8410;52.532;13.336;2022-09-14T04:42:28;14.10;99.90
16594;DHT22;8410;52.532;13.336;2022-09-14T04:44:56;14.10;99.90
16594;DHT22;8410;52.532;13.336;2022-09-14T04:47:24;14.10;99.90
16594;DHT22;8410;52.532;13.336;2022-09-14T04:49:51;14.10;99.90
16594;DHT22;8410;52.532;13.336;2022-09-14T04:52:19;14.00;99.90
16594;DHT22;8410;52.532;13.336;2022-09-14T04:54:47;14.10;99.90
16594;DHT22;8410;52.532;13.336;2022-09-14T04:57:15;14.00;99.90
16594;DHT22;8410;52.532;13.336;2022-09-14T04:59:44;14.00;99.90
16594;DHT22;8410;52.532;13.336;2022-09-14T05:02:12;14.00;99.90
16594;DHT22;8410;52.532;13.336;2022-09-14T05:04:40;14.00;99.90
16594;DHT22;8410;52.532;13.336;2022-09-14T05:07:08;14.10;99.90
16594;DHT22;8410;52.532;13.336;2022-09-14T05:09:35;14.20;99.90
16594;DHT22;8410;52.532;13.336;2022-09-14T05:12:04;14.20;99.90
16594;DHT22;8410;52.532;13.336;2022-09-14T05:14:32;14.10;99.90
16594;DHT22;8410;52.532;13.336;2022-09-14T05:17:01;14.20;99.90
16594;DHT22;8410;52.532;13.336;2022-09-14T05:19:30;14.10;99.90
16594;DHT22;8410;52.532;13.336;2022-09-14T05:21:58;14.20;99.90
16594;DHT22;8410;52.532;13.336;2022-09-14T05:24:26;14.10;99.90
16594;DHT22;8410;52.532;13.336;2022-09-14T05:26:54;14.10;99.90
16594;DHT22;8410;52.532;13.336;2022-09-14T05:29:27;14.10;99.90
16594;DHT22;8410;52.532;13.336;2022-09-14T05:31:57;14.10;99.90
16594;DHT22;8410;52.532;13.336;2022-09-14T05:34:26;14.10;99.90
16594;DHT22;8410;52.532;13.336;2022-09-14T05:36:54;14.10;99.90
16594;DHT22;8410;52.532;13.336;2022-09-14T05:39:22;14.10;99.90
16594;DHT22;8410;52.532;13.336;2022-09-14T05:41:50;14.10;99.90
16594;DHT22;8410;52.532;13.336;2022-09-14T05:44:18;14.10;99.90
16594;DHT22;8410;52.532;13.336;2022-09-14T05:46:46;14.20;99.90
16594;DHT22;8410;52.532;13.336;2022-09-14T05:49:14;14.20;99.90
16594;DHT22;8410;52.532;13.336;2022-09-14T05:51:43;14.20;99.90
16594;DHT22;8410;52.532;13.336;2022-09-14T05:54:11;14.20;99.90
16594;DHT22;8410;52.532;13.336;2022-09-14T05:56:39;14.20;99.90
16594;DHT22;8410;52.532;13.336;2022-09-14T05:59:06;14.20;99.90
16594;DHT22;8410;52.532;13.336;2022-09-14T06:01:36;14.20;99.90
16594;DHT22;8410;52.532;13.336;2022-09-14T06:04:05;14.20;99.90
16594;DHT22;8410;52.532;13.336;2022-09-14T06:06:33;14.20;99.90
16594;DHT22;8410;52.532;13.336;2022-09-14T06:09:02;14.30;99.90
16594;DHT22;8410;52.532;13.336;2022-09-14T06:11:32;14.30;99.90
16594;DHT22;8410;52.532;13.336;2022-09-14T06:14:03;14.30;99.90
16594;DHT22;8410;52.532;13.336;2022-09-14T06:16:31;14.30;99.90
16594;DHT22;8410;52.532;13.336;2022-09-14T06:19:00;14.30;99.90
16594;DHT22;8410;52.532;13.336;2022-09-14T06:21:29;14.30;99.90
16594;DHT22;8410;52.532;13.336;2022-09-14T06:23:59;14.40;99.90
16594;DHT22;8410;52.532;13.336;2022-09-14T06:26:29;14.40;99.90
16594;DHT22;8410;52.532;13.336;2022-09-14T06:28:57;14.40;99.90
16594;DHT22;8410;52.532;13.336;2022-09-14T06:31:25;14.50;99.90
16594;DHT22;8410;52.532;13.336;2022-09-14T06:33:53;14.50;99.90
16594;DHT22;8410;52.532;13.336;2022-09-14T06:36:22;14.50;99.90
16594;DHT22;8410;52.532;13.336;2022-09-14T06:38:52;14.60;99.90
16594;DHT22;8410;52.532;13.336;2022-09-14T06:41:21;14.60;99.90
16594;DHT22;8410;52.532;13.336;2022-09-14T06:43:54;14.70;99.90
16594;DHT22;8410;52.532;13.336;2022-09-14T06:46:25;14.70;99.90
16594;DHT22;8410;52.532;13.336;2022-09-14T06:48:55;14.70;99.90
16594;DHT22;8410;52.532;13.336;2022-09-14T06:51:26;14.80;99.90
16594;DHT22;8410;52.532;13.336;2022-09-14T06:53:56;14.80;99.90
16594;DHT22;8410;52.532;13.336;2022-09-14T06:56:26;14.80;99.90
16594;DHT22;8410;52.532;13.336;2022-09-14T06:58:57;14.90;99.90
16594;DHT22;8410;52.532;13.336;2022-09-14T07:01:25;15.00;99.90
16594;DHT22;8410;52.532;13.336;2022-09-14T07:03:55;15.00;99.90
16594;DHT22;8410;52.532;13.336;2022-09-14T07:06:25;15.10;99.90
16594;DHT22;8410;52.532;13.336;2022-09-14T07:08:54;15.10;99.90
16594;DHT22;8410;52.532;13.336;2022-09-14T07:11:24;15.10;99.90
16594;DHT22;8410;52.532;13.336;2022-09-14T07:13:54;15.10;99.90
16594;DHT22;8410;52.532;13.336;2022-09-14T07:16:25;15.10;99.90
16594;DHT22;8410;52.532;13.336;2022-09-14T07:18:55;15.10;99.90
16594;DHT22;8410;52.532;13.336;2022-09-14T07:21:26;15.20;99.90
16594;DHT22;8410;52.532;13.336;2022-09-14T07:23:55;15.10;99.90
16594;DHT22;8410;52.532;13.336;2022-09-14T07:26:26;15.20;99.90
16594;DHT22;8410;52.532;13.336;2022-09-14T07:28:58;15.30;99.90
16594;DHT22;8410;52.532;13.336;2022-09-14T07:31:30;15.30;99.90
16594;DHT22;8410;52.532;13.336;2022-09-14T07:34:01;15.30;99.90
16594;DHT22;8410;52.532;13.336;2022-09-14T07:36:32;15.40;99.90
16594;DHT22;8410;52.532;13.336;2022-09-14T07:39:03;15.40;99.90
16594;DHT22;8410;52.532;13.336;2022-09-14T07:41:33;15.50;99.90
16594;DHT22;8410;52.532;13.336;2022-09-14T07:44:04;15.60;99.90
16594;DHT22;8410;52.532;13.336;2022-09-14T07:46:38;15.70;99.90
16594;DHT22;8410;52.532;13.336;2022-09-14T07:49:08;15.80;99.90
16594;DHT22;8410;52.532;13.336;2022-09-14T07:51:38;15.90;99.90
16594;DHT22;8410;52.532;13.336;2022-09-14T07:54:07;16.00;99.90
16594;DHT22;8410;52.532;13.336;2022-09-14T07:56:38;16.10;99.90
16594;DHT22;8410;52.532;13.336;2022-09-14T07:59:09;16.00;99.90
16594;DHT22;8410;52.532;13.336;2022-09-14T08:01:59;16.10;99.90
16594;DHT22;8410;52.532;13.336;2022-09-14T08:04:27;16.10;99.90
16594;DHT22;8410;52.532;13.336;2022-09-14T08:06:55;16.20;99.90
16594;DHT22;8410;52.532;13.336;2022-09-14T08:09:23;16.20;99.90
16594;DHT22;8410;52.532;13.336;2022-09-14T08:11:51;16.20;99.90
16594;DHT22;8410;52.532;13.336;2022-09-14T08:14:19;16.20;99.90
16594;DHT22;8410;52.532;13.336;2022-09-14T08:16:47;16.20;99.90
16594;DHT22;8410;52.532;13.336;2022-09-14T08:19:17;16.60;99.90
16594;DHT22;8410;52.532;13.336;2022-09-14T08:21:47;16.80;99.90
16594;DHT22;8410;52.532;13.336;2022-09-14T08:24:17;17.00;99.90
16594;DHT22;8410;52.532;13.336;2022-09-14T08:26:48;18.20;99.90
16594;DHT22;8410;52.532;13.336;2022-09-14T08:29:17;18.70;99.90
16594;DHT22;8410;52.532;13.336;2022-09-14T08:31:47;18.20;99.90
16594;DHT22;8410;52.532;13.336;2022-09-14T08:34:19;18.40;99.90
16594;DHT22;8410;52.532;13.336;2022-09-14T08:36:47;18.40;99.90
16594;DHT22;8410;52.532;13.336;2022-09-14T08:39:16;18.20;99.90
16594;DHT22;8410;52.532;13.336;2022-09-14T08:41:50;18.90;99.90
16594;DHT22;8410;52.532;13.336;2022-09-14T08:44:23;18.70;99.90
16594;DHT22;8410;52.532;13.336;2022-09-14T08:46:58;18.00;99.90
16594;DHT22;8410;52.532;13.336;2022-09-14T08:49:45;18.40;99.90
16594;DHT22;8410;52.532;13.336;2022-09-14T08:52:24;18.90;99.90
16594;DHT22;8410;52.532;13.336;2022-09-14T08:54:57;18.40;99.90
16594;DHT22;8410;52.532;13.336;2022-09-14T08:57:31;18.00;99.90
16594;DHT22;8410;52.532;13.336;2022-09-14T09:00:07;18.50;99.90
16594;DHT22;8410;52.532;13.336;2022-09-14T09:03:02;18.40;99.90
16594;DHT22;8410;52.532;13.336;2022-09-14T09:06:05;18.00;99.90
16594;DHT22;8410;52.532;13.336;2022-09-14T09:08:51;18.60;99.90
16594;DHT22;8410;52.532;13.336;2022-09-14T09:11:36;18.70;99.90
16594;DHT22;8410;52.532;13.336;2022-09-14T09:14:16;18.70;99.90
16594;DHT22;8410;52.532;13.336;2022-09-14T09:16:49;18.70;99.90
16594;DHT22;8410;52.532;13.336;2022-09-14T09:19:23;18.40;99.90
16594;DHT22;8410;52.532;13.336;2022-09-14T09:21:59;18.80;99.90
16594;DHT22;8410;52.532;13.336;2022-09-14T09:24:33;18.90;99.90
16594;DHT22;8410;52.532;13.336;2022-09-14T09:27:09;19.10;99.90
16594;DHT22;8410;52.532;13.336;2022-09-14T09:29:38;18.90;99.90
16594;DHT22;8410;52.532;13.336;2022-09-14T09:32:09;18.60;99.90
16594;DHT22;8410;52.532;13.336;2022-09-14T09:34:40;18.20;99.90
16594;DHT22;8410;52.532;13.336;2022-09-14T09:37:13;18.80;99.90
16594;DHT22;8410;52.532;13.336;2022-09-14T09:39:42;18.60;99.90
16594;DHT22;8410;52.532;13.336;2022-09-14T09:42:14;18.90;99.90
16594;DHT22;8410;52.532;13.336;2022-09-14T09:44:54;18.70;99.90
16594;DHT22;8410;52.532;13.336;2022-09-14T09:47:31;18.20;99.90
16594;DHT22;8410;52.532;13.336;2022-09-14T09:50:03;17.90;99.90
16594;DHT22;8410;52.532;13.336;2022-09-14T09:52:48;17.90;99.90
16594;DHT22;8410;52.532;13.336;2022-09-14T09:55:18;18.20;99.90
16594;DHT22;8410;52.532;13.336;2022-09-14T09:57:47;18.40;99.90
16594;DHT22;8410;52.532;13.336;2022-09-14T10:00:22;18.50;99.90
16594;DHT22;8410;52.532;13.336;2022-09-14T10:02:52;19.00;99.90
16594;DHT22;8410;52.532;13.336;2022-09-14T10:05:23;18.80;99.90
16594;DHT22;8410;52.532;13.336;2022-09-14T10:07:58;18.70;99.90
16594;DHT22;8410;52.532;13.336;2022-09-14T10:10:39;18.60;99.90
16594;DHT22;8410;52.532;13.336;2022-09-14T10:13:19;18.90;99.90
16594;DHT22;8410;52.532;13.336;2022-09-14T10:15:52;19.20;99.90
16594;DHT22;8410;52.532;13.336;2022-09-14T10:18:21;18.80;99.90
16594;DHT22;8410;52.532;13.336;2022-09-14T10:21:07;18.90;99.90
16594;DHT22;8410;52.532;13.336;2022-09-14T10:23:37;18.90;99.90
16594;DHT22;8410;52.532;13.336;2022-09-14T10:26:34;19.00;99.90
16594;DHT22;8410;52.532;13.336;2022-09-14T10:29:25;18.80;99.90
16594;DHT22;8410;52.532;13.336;2022-09-14T10:32:01;19.00;99.90
16594;DHT22;8410;52.532;13.336;2022-09-14T10:34:33;18.90;99.90
16594;DHT22;8410;52.532;13.336;2022-09-14T10:37:12;18.70;99.90
16594;DHT22;8410;52.532;13.336;2022-09-14T10:39:55;19.00;99.90
16594;DHT22;8410;52.532;13.336;2022-09-14T10:42:50;19.00;99.90
16594;DHT22;8410;52.532;13.336;2022-09-14T10:45:33;18.90;99.90
16594;DHT22;8410;52.532;13.336;2022-09-14T10:48:17;18.80;99.90
16594;DHT22;8410;52.532;13.336;2022-09-14T10:50:57;18.80;99.90
16594;DHT22;8410;52.532;13.336;2022-09-14T10:53:42;19.00;99.90
16594;DHT22;8410;52.532;13.336;2022-09-14T10:56:19;18.70;99.90
16594;DHT22;8410;52.532;13.336;2022-09-14T10:59:02;19.00;99.90
16594;DHT22;8410;52.532;13.336;2022-09-14T11:01:51;19.10;99.90
16594;DHT22;8410;52.532;13.336;2022-09-14T11:04:56;18.70;99.90
16594;DHT22;8410;52.532;13.336;2022-09-14T11:07:36;18.40;99.90
16594;DHT22;8410;52.532;13.336;2022-09-14T11:10:17;18.20;99.90
16594;DHT22;8410;52.532;13.336;2022-09-14T11:13:05;18.30;99.90
16594;DHT22;8410;52.532;13.336;2022-09-14T11:15:55;18.30;99.90
16594;DHT22;8410;52.532;13.336;2022-09-14T11:18:35;18.20;99.90
16594;DHT22;8410;52.532;13.336;2022-09-14T11:21:17;18.20;99.90
16594;DHT22;8410;52.532;13.336;2022-09-14T11:23:52;18.20;99.90
16594;DHT22;8410;52.532;13.336;2022-09-14T11:26:26;18.00;99.90
16594;DHT22;8410;52.532;13.336;2022-09-14T11:29:06;17.90;99.90
16594;DHT22;8410;52.532;13.336;2022-09-14T11:31:48;18.10;99.90
16594;DHT22;8410;52.532;13.336;2022-09-14T11:34:41;18.00;99.90
16594;DHT22;8410;52.532;13.336;2022-09-14T11:37:16;18.10;99.90
16594;DHT22;8410;52.532;13.336;2022-09-14T11:39:50;18.00;99.90
16594;DHT22;8410;52.532;13.336;2022-09-14T11:42:32;18.10;99.90
16594;DHT22;8410;52.532;13.336;2022-09-14T11:45:12;18.20;99.90
16594;DHT22;8410;52.532;13.336;2022-09-14T11:47:48;18.20;99.90
16594;DHT22;8410;52.532;13.336;2022-09-14T11:50:26;18.20;99.90
16594;DHT22;8410;52.532;13.336;2022-09-14T11:53:02;18.30;99.90
16594;DHT22;8410;52.532;13.336;2022-09-14T11:55:37;18.40;99.90
16594;DHT22;8410;52.532;13.336;2022-09-14T11:58:19;18.50;99.90
16594;DHT22;8410;52.532;13.336;2022-09-14T12:01:24;18.50;99.90
16594;DHT22;8410;52.532;13.336;2022-09-14T12:04:11;18.30;99.90
16594;DHT22;8410;52.532;13.336;2022-09-14T12:06:47;18.20;99.90
16594;DHT22;8410;52.532;13.336;2022-09-14T12:09:51;18.20;99.90
16594;DHT22;8410;52.532;13.336;2022-09-14T12:12:29;18.30;99.90
16594;DHT22;8410;52.532;13.336;2022-09-14T12:15:02;18.30;99.90
16594;DHT22;8410;52.532;13.336;2022-09-14T12:17:40;18.30;99.90
16594;DHT22;8410;52.532;13.336;2022-09-14T12:20:37;18.40;99.90
16594;DHT22;8410;52.532;13.336;2022-09-14T12:23:20;18.40;99.90
16594;DHT22;8410;52.532;13.336;2022-09-14T12:25:56;18.40;99.90
16594;DHT22;8410;52.532;13.336;2022-09-14T12:28:36;18.30;99.90
16594;DHT22;8410;52.532;13.336;2022-09-14T12:31:10;18.40;99.90
16594;DHT22;8410;52.532;13.336;2022-09-14T12:34:13;18.30;99.90
16594;DHT22;8410;52.532;13.336;2022-09-14T12:36:59;18.40;99.90
16594;DHT22;8410;52.532;13.336;2022-09-14T12:46:38;18.50;99.90
16594;DHT22;8410;52.532;13.336;2022-09-14T12:49:23;18.50;99.90
16594;DHT22;8410;52.532;13.336;2022-09-14T12:51:59;18.50;99.90
16594;DHT22;8410;52.532;13.336;2022-09-14T12:54:48;18.60;99.90
16594;DHT22;8410;52.532;13.336;2022-09-14T12:57:31;18.80;99.90
16594;DHT22;8410;52.532;13.336;2022-09-14T13:00:11;19.00;99.90
16594;DHT22;8410;52.532;13.336;2022-09-14T13:03:03;19.00;99.90
16594;DHT22;8410;52.532;13.336;2022-09-14T13:05:45;19.10;99.90
16594;DHT22;8410;52.532;13.336;2022-09-14T13:08:19;19.30;99.90
16594;DHT22;8410;52.532;13.336;2022-09-14T13:10:50;19.30;99.90
16594;DHT22;8410;52.532;13.336;2022-09-14T13:13:21;19.30;99.90
16594;DHT22;8410;52.532;13.336;2022-09-14T13:15:54;19.10;99.90
16594;DHT22;8410;52.532;13.336;2022-09-14T13:18:28;19.00;99.90
16594;DHT22;8410;52.532;13.336;2022-09-14T13:21:01;18.90;99.90
16594;DHT22;8410;52.532;13.336;2022-09-14T13:23:43;18.80;99.90
16594;DHT22;8410;52.532;13.336;2022-09-14T13:26:15;18.70;99.90
16594;DHT22;8410;52.532;13.336;2022-09-14T13:28:48;18.80;99.90
16594;DHT22;8410;52.532;13.336;2022-09-14T13:31:22;18.90;99.90
16594;DHT22;8410;52.532;13.336;2022-09-14T13:33:54;18.70;99.90
16594;DHT22;8410;52.532;13.336;2022-09-14T13:36:26;18.70;99.90
16594;DHT22;8410;52.532;13.336;2022-09-14T13:38:57;18.60;99.90
16594;DHT22;8410;52.532;13.336;2022-09-14T13:41:28;18.60;99.90
16594;DHT22;8410;52.532;13.336;2022-09-14T13:43:58;18.70;99.90
16594;DHT22;8410;52.532;13.336;2022-09-14T13:46:27;18.70;99.90
16594;DHT22;8410;52.532;13.336;2022-09-14T13:48:55;18.70;99.90
16594;DHT22;8410;52.532;13.336;2022-09-14T13:51:26;18.60;99.90
16594;DHT22;8410;52.532;13.336;2022-09-14T13:53:57;18.50;99.90
16594;DHT22;8410;52.532;13.336;2022-09-14T13:56:43;18.60;99.90
16594;DHT22;8410;52.532;13.336;2022-09-14T13:59:18;18.60;99.90
16594;DHT22;8410;52.532;13.336;2022-09-14T14:01:56;18.70;99.90
16594;DHT22;8410;52.532;13.336;2022-09-14T14:04:32;18.70;99.90
16594;DHT22;8410;52.532;13.336;2022-09-14T14:07:06;18.60;99.80
16594;DHT22;8410;52.532;13.336;2022-09-14T14:09:46;18.50;99.80
16594;DHT22;8410;52.532;13.336;2022-09-14T14:12:22;18.50;99.90
16594;DHT22;8410;52.532;13.336;2022-09-14T14:14:56;18.50;99.90
16594;DHT22;8410;52.532;13.336;2022-09-14T14:17:31;18.50;99.60
16594;DHT22;8410;52.532;13.336;2022-09-14T14:20:27;18.50;99.60
16594;DHT22;8410;52.532;13.336;2022-09-14T14:23:16;18.40;99.90
16594;DHT22;8410;52.532;13.336;2022-09-14T14:25:49;18.40;99.90
16594;DHT22;8410;52.532;13.336;2022-09-14T14:28:24;18.40;99.90
16594;DHT22;8410;52.532;13.336;2022-09-14T14:30:54;18.30;99.90
16594;DHT22;8410;52.532;13.336;2022-09-14T14:33:24;18.20;99.80
16594;DHT22;8410;52.532;13.336;2022-09-14T14:35:53;18.20;99.90
16594;DHT22;8410;52.532;13.336;2022-09-14T14:38:24;18.20;99.90
16594;DHT22;8410;52.532;13.336;2022-09-14T14:40:53;18.20;99.60
16594;DHT22;8410;52.532;13.336;2022-09-14T14:43:24;18.20;99.90
16594;DHT22;8410;52.532;13.336;2022-09-14T14:45:55;18.20;99.50
16594;DHT22;8410;52.532;13.336;2022-09-14T14:48:25;18.10;99.90
16594;DHT22;8410;52.532;13.336;2022-09-14T14:50:54;18.00;99.90
16594;DHT22;8410;52.532;13.336;2022-09-14T14:53:23;18.10;99.70
16594;DHT22;8410;52.532;13.336;2022-09-14T14:55:52;18.10;99.30
16594;DHT22;8410;52.532;13.336;2022-09-14T14:58:21;18.10;99.60
16594;DHT22;8410;52.532;13.336;2022-09-14T15:00:50;18.10;99.50
16594;DHT22;8410;52.532;13.336;2022-09-14T15:03:18;18.00;99.30
16594;DHT22;8410;52.532;13.336;2022-09-14T15:05:47;18.10;99.20
16594;DHT22;8410;52.532;13.336;2022-09-14T15:08:17;18.00;99.40
16594;DHT22;8410;52.532;13.336;2022-09-14T15:10:47;18.00;99.20
16594;DHT22;8410;52.532;13.336;2022-09-14T15:13:21;18.00;99.20
16594;DHT22;8410;52.532;13.336;2022-09-14T15:15:49;18.00;99.00
16594;DHT22;8410;52.532;13.336;2022-09-14T15:18:23;18.00;99.30
16594;DHT22;8410;52.532;13.336;2022-09-14T15:20:51;18.10;99.30
16594;DHT22;8410;52.532;13.336;2022-09-14T15:23:19;18.00;98.90
16594;DHT22;8410;52.532;13.336;2022-09-14T15:25:51;18.00;99.10
16594;DHT22;8410;52.532;13.336;2022-09-14T15:28:19;18.00;99.70
16594;DHT22;8410;52.532;13.336;2022-09-14T15:30:47;17.90;99.50
16594;DHT22;8410;52.532;13.336;2022-09-14T15:33:15;18.00;99.30
16594;DHT22;8410;52.532;13.336;2022-09-14T15:35:43;17.90;99.30
16594;DHT22;8410;52.532;13.336;2022-09-14T15:38:11;18.00;99.60
16594;DHT22;8410;52.532;13.336;2022-09-14T15:40:38;17.90;99.50
16594;DHT22;8410;52.532;13.336;2022-09-14T15:43:08;17.90;99.70
16594;DHT22;8410;52.532;13.336;2022-09-14T15:45:35;17.90;99.60
16594;DHT22;8410;52.532;13.336;2022-09-14T15:48:04;17.90;99.70
16594;DHT22;8410;52.532;13.336;2022-09-14T15:50:31;17.90;99.90
16594;DHT22;8410;52.532;13.336;2022-09-14T15:53:01;17.90;99.90
16594;DHT22;8410;52.532;13.336;2022-09-14T15:55:29;17.90;99.90
16594;DHT22;8410;52.532;13.336;2022-09-14T15:57:57;17.80;99.80
16594;DHT22;8410;52.532;13.336;2022-09-14T16:00:26;17.80;99.90
16594;DHT22;8410;52.532;13.336;2022-09-14T16:02:53;17.80;99.90
16594;DHT22;8410;52.532;13.336;2022-09-14T16:05:21;17.80;99.90
16594;DHT22;8410;52.532;13.336;2022-09-14T16:07:51;17.80;99.90
16594;DHT22;8410;52.532;13.336;2022-09-14T16:10:20;17.80;99.90
16594;DHT22;8410;52.532;13.336;2022-09-14T16:12:48;17.80;99.90
16594;DHT22;8410;52.532;13.336;2022-09-14T16:15:16;17.70;99.90
16594;DHT22;8410;52.532;13.336;2022-09-14T16:17:48;17.70;99.90
16594;DHT22;8410;52.532;13.336;2022-09-14T16:20:17;17.70;99.90
16594;DHT22;8410;52.532;13.336;2022-09-14T16:22:46;17.70;99.90
16594;DHT22;8410;52.532;13.336;2022-09-14T16:25:14;17.70;99.90